sensor_id;sensor_type;location;lat;lon;timestamp;P1;durP1;ratioP1;P2;durP2;ratioP2
52322;SDS011;38263;52.920;6.238;2023-08-31T00:00:42;2.85;;;1.40;;
52322;SDS011;38263;52.920;6.238;2023-08-31T00:03:08;5.20;;;0.93;;
52322;SDS011;38263;52.920;6.238;2023-08-31T00:05:41;3.00;;;1.02;;
52322;SDS011;38263;52.920;6.238;2023-08-31T00:08:07;7.07;;;1.05;;
52322;SDS011;38263;52.920;6.238;2023-08-31T00:10:34;2.38;;;1.05;;
52322;SDS011;38263;52.920;6.238;2023-08-31T00:13:00;3.92;;;1.30;;
52322;SDS011;38263;52.920;6.238;2023-08-31T00:15:26;1.23;;;0.80;;
52322;SDS011;38263;52.920;6.238;2023-08-31T00:17:53;4.32;;;0.90;;
52322;SDS011;38263;52.920;6.238;2023-08-31T00:20:19;4.70;;;1.85;;
52322;SDS011;38263;52.920;6.238;2023-08-31T00:22:46;4.10;;;0.88;;
52322;SDS011;38263;52.920;6.238;2023-08-31T00:25:13;4.22;;;0.80;;
52322;SDS011;38263;52.920;6.238;2023-08-31T00:27:39;3.67;;;1.05;;
52322;SDS011;38263;52.920;6.238;2023-08-31T00:30:06;1.00;;;0.80;;
52322;SDS011;38263;52.920;6.238;2023-08-31T00:32:36;3.25;;;1.15;;
52322;SDS011;38263;52.920;6.238;2023-08-31T00:35:02;2.55;;;0.90;;
52322;SDS011;38263;52.920;6.238;2023-08-31T00:37:29;2.85;;;1.10;;
52322;SDS011;38263;52.920;6.238;2023-08-31T00:39:54;2.53;;;1.20;;
52322;SDS011;38263;52.920;6.238;2023-08-31T00:42:20;3.78;;;0.80;;
52322;SDS011;38263;52.920;6.238;2023-08-31T00:44:46;3.80;;;1.50;;
52322;SDS011;38263;52.920;6.238;2023-08-31T00:47:13;3.33;;;0.80;;
52322;SDS011;38263;52.920;6.238;2023-08-31T00:49:39;2.83;;;0.77;;
52322;SDS011;38263;52.920;6.238;2023-08-31T00:52:05;3.72;;;1.20;;
52322;SDS011;38263;52.920;6.238;2023-08-31T00:54:31;1.92;;;1.10;;
52322;SDS011;38263;52.920;6.238;2023-08-31T00:56:57;2.13;;;0.80;;
52322;SDS011;38263;52.920;6.238;2023-08-31T00:59:23;3.47;;;0.80;;
52322;SDS011;38263;52.920;6.238;2023-08-31T01:01:50;3.65;;;0.80;;
52322;SDS011;38263;52.920;6.238;2023-08-31T01:04:29;2.35;;;0.80;;
52322;SDS011;38263;52.920;6.238;2023-08-31T01:09:50;1.40;;;0.77;;
52322;SDS011;38263;52.920;6.238;2023-08-31T01:12:21;1.67;;;1.10;;
52322;SDS011;38263;52.920;6.238;2023-08-31T01:14:56;2.15;;;1.08;;
52322;SDS011;38263;52.920;6.238;2023-08-31T01:17:24;3.47;;;1.00;;
52322;SDS011;38263;52.920;6.238;2023-08-31T01:19:53;1.15;;;0.73;;
52322;SDS011;38263;52.920;6.238;2023-08-31T01:22:27;1.73;;;0.90;;
52322;SDS011;38263;52.920;6.238;2023-08-31T01:24:55;2.70;;;0.88;;
52322;SDS011;38263;52.920;6.238;2023-08-31T01:27:22;2.20;;;1.02;;
52322;SDS011;38263;52.920;6.238;2023-08-31T01:29:48;2.08;;;0.82;;
52322;SDS011;38263;52.920;6.238;2023-08-31T01:32:14;3.08;;;0.93;;
52322;SDS011;38263;52.920;6.238;2023-08-31T01:34:40;1.00;;;0.90;;
52322;SDS011;38263;52.920;6.238;2023-08-31T01:37:11;1.58;;;0.63;;
52322;SDS011;38263;52.920;6.238;2023-08-31T01:42:11;2.92;;;0.77;;
52322;SDS011;38263;52.920;6.238;2023-08-31T01:44:39;4.35;;;0.88;;
52322;SDS011;38263;52.920;6.238;2023-08-31T01:47:05;1.98;;;0.80;;
52322;SDS011;38263;52.920;6.238;2023-08-31T01:49:38;2.97;;;0.85;;
52322;SDS011;38263;52.920;6.238;2023-08-31T01:52:04;2.25;;;0.80;;
52322;SDS011;38263;52.920;6.238;2023-08-31T01:54:30;1.05;;;0.70;;
52322;SDS011;38263;52.920;6.238;2023-08-31T01:56:56;1.45;;;0.80;;
52322;SDS011;38263;52.920;6.238;2023-08-31T01:59:22;1.55;;;0.68;;
52322;SDS011;38263;52.920;6.238;2023-08-31T02:01:48;2.13;;;0.90;;
52322;SDS011;38263;52.920;6.238;2023-08-31T02:04:14;3.65;;;0.90;;
52322;SDS011;38263;52.920;6.238;2023-08-31T02:06:40;4.88;;;1.20;;
52322;SDS011;38263;52.920;6.238;2023-08-31T02:09:05;2.90;;;0.85;;
52322;SDS011;38263;52.920;6.238;2023-08-31T02:11:31;2.65;;;0.93;;
52322;SDS011;38263;52.920;6.238;2023-08-31T02:14:02;1.90;;;0.93;;
52322;SDS011;38263;52.920;6.238;2023-08-31T02:16:28;3.97;;;1.17;;
52322;SDS011;38263;52.920;6.238;2023-08-31T02:18:54;7.20;;;1.35;;
52322;SDS011;38263;52.920;6.238;2023-08-31T02:21:20;1.75;;;0.75;;
52322;SDS011;38263;52.920;6.238;2023-08-31T02:23:46;2.78;;;1.02;;
52322;SDS011;38263;52.920;6.238;2023-08-31T02:26:12;2.15;;;1.13;;
52322;SDS011;38263;52.920;6.238;2023-08-31T02:28:38;2.22;;;0.77;;
52322;SDS011;38263;52.920;6.238;2023-08-31T02:31:04;3.75;;;1.10;;
52322;SDS011;38263;52.920;6.238;2023-08-31T02:33:29;3.13;;;1.00;;
52322;SDS011;38263;52.920;6.238;2023-08-31T02:35:55;3.33;;;0.90;;
52322;SDS011;38263;52.920;6.238;2023-08-31T02:38:21;2.67;;;0.93;;
52322;SDS011;38263;52.920;6.238;2023-08-31T02:40:47;1.40;;;1.00;;
52322;SDS011;38263;52.920;6.238;2023-08-31T02:43:14;3.97;;;1.20;;
52322;SDS011;38263;52.920;6.238;2023-08-31T02:45:40;3.72;;;1.13;;
52322;SDS011;38263;52.920;6.238;2023-08-31T02:48:08;2.00;;;0.90;;
52322;SDS011;38263;52.920;6.238;2023-08-31T02:50:34;4.78;;;1.20;;
52322;SDS011;38263;52.920;6.238;2023-08-31T02:53:00;5.78;;;1.30;;
52322;SDS011;38263;52.920;6.238;2023-08-31T02:55:26;1.00;;;0.85;;
52322;SDS011;38263;52.920;6.238;2023-08-31T02:57:52;2.92;;;1.20;;
52322;SDS011;38263;52.920;6.238;2023-08-31T03:00:18;3.08;;;2.08;;
52322;SDS011;38263;52.920;6.238;2023-08-31T03:02:49;6.53;;;1.50;;
52322;SDS011;38263;52.920;6.238;2023-08-31T03:05:17;2.72;;;1.30;;
52322;SDS011;38263;52.920;6.238;2023-08-31T03:07:43;5.43;;;1.40;;
52322;SDS011;38263;52.920;6.238;2023-08-31T03:10:09;2.70;;;1.38;;
52322;SDS011;38263;52.920;6.238;2023-08-31T03:12:35;3.75;;;1.48;;
52322;SDS011;38263;52.920;6.238;2023-08-31T03:15:02;2.63;;;1.38;;
52322;SDS011;38263;52.920;6.238;2023-08-31T03:17:28;3.05;;;1.80;;
52322;SDS011;38263;52.920;6.238;2023-08-31T03:19:54;3.38;;;2.20;;
52322;SDS011;38263;52.920;6.238;2023-08-31T03:22:20;3.83;;;2.38;;
52322;SDS011;38263;52.920;6.238;2023-08-31T03:24:46;3.85;;;2.63;;
52322;SDS011;38263;52.920;6.238;2023-08-31T03:27:12;3.90;;;2.78;;
52322;SDS011;38263;52.920;6.238;2023-08-31T03:29:37;3.85;;;2.85;;
52322;SDS011;38263;52.920;6.238;2023-08-31T03:32:05;6.65;;;3.45;;
52322;SDS011;38263;52.920;6.238;2023-08-31T03:34:31;5.68;;;3.97;;
52322;SDS011;38263;52.920;6.238;2023-08-31T03:36:58;5.07;;;3.70;;
52322;SDS011;38263;52.920;6.238;2023-08-31T03:39:26;7.05;;;4.22;;
52322;SDS011;38263;52.920;6.238;2023-08-31T03:41:52;6.05;;;4.70;;
52322;SDS011;38263;52.920;6.238;2023-08-31T03:44:17;8.68;;;4.55;;
52322;SDS011;38263;52.920;6.238;2023-08-31T03:46:43;6.25;;;5.30;;
52322;SDS011;38263;52.920;6.238;2023-08-31T03:49:10;7.50;;;4.95;;
52322;SDS011;38263;52.920;6.238;2023-08-31T03:51:36;6.40;;;5.45;;
52322;SDS011;38263;52.920;6.238;2023-08-31T03:54:02;9.82;;;5.82;;
52322;SDS011;38263;52.920;6.238;2023-08-31T03:56:28;12.52;;;6.68;;
52322;SDS011;38263;52.920;6.238;2023-08-31T03:58:54;11.00;;;6.60;;
52322;SDS011;38263;52.920;6.238;2023-08-31T04:01:20;10.73;;;6.60;;
52322;SDS011;38263;52.920;6.238;2023-08-31T04:03:46;12.20;;;6.60;;
52322;SDS011;38263;52.920;6.238;2023-08-31T04:06:12;10.27;;;6.93;;
52322;SDS011;38263;52.920;6.238;2023-08-31T04:08:37;7.68;;;6.28;;
52322;SDS011;38263;52.920;6.238;2023-08-31T04:11:03;12.13;;;5.93;;
52322;SDS011;38263;52.920;6.238;2023-08-31T04:13:29;10.90;;;5.63;;
52322;SDS011;38263;52.920;6.238;2023-08-31T04:15:55;14.73;;;6.60;;
52322;SDS011;38263;52.920;6.238;2023-08-31T04:18:21;7.35;;;5.95;;
52322;SDS011;38263;52.920;6.238;2023-08-31T04:20:48;8.77;;;5.32;;
52322;SDS011;38263;52.920;6.238;2023-08-31T04:23:16;11.57;;;5.63;;
52322;SDS011;38263;52.920;6.238;2023-08-31T04:25:42;11.13;;;5.95;;
52322;SDS011;38263;52.920;6.238;2023-08-31T04:28:07;10.43;;;6.18;;
52322;SDS011;38263;52.920;6.238;2023-08-31T04:30:33;9.45;;;5.70;;
52322;SDS011;38263;52.920;6.238;2023-08-31T04:32:59;11.00;;;5.78;;
52322;SDS011;38263;52.920;6.238;2023-08-31T04:35:25;8.30;;;5.68;;
52322;SDS011;38263;52.920;6.238;2023-08-31T04:37:52;8.07;;;5.45;;
52322;SDS011;38263;52.920;6.238;2023-08-31T04:40:17;7.82;;;5.22;;
52322;SDS011;38263;52.920;6.238;2023-08-31T04:42:43;8.80;;;5.10;;
52322;SDS011;38263;52.920;6.238;2023-08-31T04:45:09;11.65;;;4.93;;
52322;SDS011;38263;52.920;6.238;2023-08-31T04:47:36;8.25;;;5.90;;
52322;SDS011;38263;52.920;6.238;2023-08-31T04:50:02;10.82;;;5.35;;
52322;SDS011;38263;52.920;6.238;2023-08-31T04:52:28;8.50;;;5.05;;
52322;SDS011;38263;52.920;6.238;2023-08-31T04:54:54;7.50;;;5.25;;
52322;SDS011;38263;52.920;6.238;2023-08-31T04:57:19;9.63;;;5.60;;
52322;SDS011;38263;52.920;6.238;2023-08-31T04:59:45;8.25;;;5.00;;
52322;SDS011;38263;52.920;6.238;2023-08-31T05:02:11;7.75;;;4.38;;
52322;SDS011;38263;52.920;6.238;2023-08-31T05:04:37;9.98;;;5.28;;
52322;SDS011;38263;52.920;6.238;2023-08-31T05:07:03;10.85;;;4.70;;
52322;SDS011;38263;52.920;6.238;2023-08-31T05:09:29;11.48;;;4.57;;
52322;SDS011;38263;52.920;6.238;2023-08-31T05:11:59;10.35;;;5.28;;
52322;SDS011;38263;52.920;6.238;2023-08-31T05:14:25;11.52;;;4.93;;
52322;SDS011;38263;52.920;6.238;2023-08-31T05:16:51;8.82;;;4.75;;
52322;SDS011;38263;52.920;6.238;2023-08-31T05:19:17;8.27;;;4.80;;
52322;SDS011;38263;52.920;6.238;2023-08-31T05:21:42;7.63;;;4.53;;
52322;SDS011;38263;52.920;6.238;2023-08-31T05:24:08;6.28;;;4.38;;
52322;SDS011;38263;52.920;6.238;2023-08-31T05:26:34;8.40;;;4.72;;
52322;SDS011;38263;52.920;6.238;2023-08-31T05:29:00;8.20;;;4.38;;
52322;SDS011;38263;52.920;6.238;2023-08-31T05:31:26;9.68;;;3.97;;
52322;SDS011;38263;52.920;6.238;2023-08-31T05:33:52;4.97;;;3.90;;
52322;SDS011;38263;52.920;6.238;2023-08-31T05:36:17;7.07;;;3.75;;
52322;SDS011;38263;52.920;6.238;2023-08-31T05:38:43;5.90;;;3.70;;
52322;SDS011;38263;52.920;6.238;2023-08-31T05:41:09;9.38;;;3.60;;
52322;SDS011;38263;52.920;6.238;2023-08-31T05:43:36;8.73;;;4.13;;
52322;SDS011;38263;52.920;6.238;2023-08-31T05:46:05;5.15;;;3.38;;
52322;SDS011;38263;52.920;6.238;2023-08-31T05:48:31;6.55;;;3.15;;
52322;SDS011;38263;52.920;6.238;2023-08-31T05:50:56;9.77;;;3.15;;
52322;SDS011;38263;52.920;6.238;2023-08-31T05:53:22;7.25;;;2.75;;
52322;SDS011;38263;52.920;6.238;2023-08-31T05:55:48;9.93;;;2.97;;
52322;SDS011;38263;52.920;6.238;2023-08-31T05:58:14;5.75;;;3.28;;
52322;SDS011;38263;52.920;6.238;2023-08-31T06:00:40;6.63;;;2.40;;
52322;SDS011;38263;52.920;6.238;2023-08-31T06:03:06;4.93;;;2.88;;
52322;SDS011;38263;52.920;6.238;2023-08-31T06:05:32;8.55;;;4.05;;
52322;SDS011;38263;52.920;6.238;2023-08-31T06:07:58;8.07;;;3.05;;
52322;SDS011;38263;52.920;6.238;2023-08-31T06:10:24;8.48;;;3.33;;
52322;SDS011;38263;52.920;6.238;2023-08-31T06:12:50;8.77;;;3.10;;
52322;SDS011;38263;52.920;6.238;2023-08-31T06:15:17;8.15;;;2.58;;
52322;SDS011;38263;52.920;6.238;2023-08-31T06:17:43;8.57;;;3.38;;
52322;SDS011;38263;52.920;6.238;2023-08-31T06:20:09;5.70;;;3.10;;
52322;SDS011;38263;52.920;6.238;2023-08-31T06:22:35;5.47;;;2.70;;
52322;SDS011;38263;52.920;6.238;2023-08-31T06:25:01;5.20;;;2.15;;
52322;SDS011;38263;52.920;6.238;2023-08-31T06:27:29;4.70;;;1.63;;
52322;SDS011;38263;52.920;6.238;2023-08-31T06:29:55;4.13;;;1.70;;
52322;SDS011;38263;52.920;6.238;2023-08-31T06:32:21;5.13;;;1.65;;
52322;SDS011;38263;52.920;6.238;2023-08-31T06:34:48;4.65;;;1.42;;
52322;SDS011;38263;52.920;6.238;2023-08-31T06:37:14;3.88;;;1.20;;
52322;SDS011;38263;52.920;6.238;2023-08-31T06:39:39;5.13;;;1.27;;
52322;SDS011;38263;52.920;6.238;2023-08-31T06:42:06;3.97;;;1.13;;
52322;SDS011;38263;52.920;6.238;2023-08-31T06:44:32;2.40;;;1.10;;
52322;SDS011;38263;52.920;6.238;2023-08-31T06:46:57;2.53;;;1.10;;
52322;SDS011;38263;52.920;6.238;2023-08-31T06:49:23;3.22;;;0.82;;
52322;SDS011;38263;52.920;6.238;2023-08-31T06:51:49;4.15;;;0.80;;
52322;SDS011;38263;52.920;6.238;2023-08-31T06:54:15;3.47;;;0.82;;
52322;SDS011;38263;52.920;6.238;2023-08-31T06:56:40;4.93;;;1.00;;
52322;SDS011;38263;52.920;6.238;2023-08-31T06:59:06;1.98;;;0.75;;
52322;SDS011;38263;52.920;6.238;2023-08-31T07:01:31;3.80;;;0.90;;
52322;SDS011;38263;52.920;6.238;2023-08-31T07:04:00;3.17;;;0.80;;
52322;SDS011;38263;52.920;6.238;2023-08-31T07:06:26;2.15;;;0.70;;
52322;SDS011;38263;52.920;6.238;2023-08-31T07:08:51;2.65;;;0.70;;
52322;SDS011;38263;52.920;6.238;2023-08-31T07:11:18;4.72;;;1.05;;
52322;SDS011;38263;52.920;6.238;2023-08-31T07:13:44;3.25;;;0.98;;
52322;SDS011;38263;52.920;6.238;2023-08-31T07:16:10;4.30;;;0.85;;
52322;SDS011;38263;52.920;6.238;2023-08-31T07:18:36;3.88;;;0.95;;
52322;SDS011;38263;52.920;6.238;2023-08-31T07:21:02;5.47;;;1.00;;
52322;SDS011;38263;52.920;6.238;2023-08-31T07:23:29;2.63;;;0.80;;
52322;SDS011;38263;52.920;6.238;2023-08-31T07:25:58;4.82;;;1.23;;
52322;SDS011;38263;52.920;6.238;2023-08-31T07:28:25;5.00;;;0.90;;
52322;SDS011;38263;52.920;6.238;2023-08-31T07:31:03;3.20;;;0.90;;
52322;SDS011;38263;52.920;6.238;2023-08-31T07:33:30;2.78;;;0.80;;
52322;SDS011;38263;52.920;6.238;2023-08-31T07:35:57;2.78;;;0.88;;
52322;SDS011;38263;52.920;6.238;2023-08-31T07:38:23;0.80;;;0.60;;
52322;SDS011;38263;52.920;6.238;2023-08-31T07:40:49;4.72;;;1.20;;
52322;SDS011;38263;52.920;6.238;2023-08-31T07:43:15;5.95;;;0.80;;
52322;SDS011;38263;52.920;6.238;2023-08-31T07:45:41;3.03;;;0.90;;
52322;SDS011;38263;52.920;6.238;2023-08-31T07:48:07;9.02;;;1.90;;
52322;SDS011;38263;52.920;6.238;2023-08-31T07:50:33;8.80;;;1.40;;
52322;SDS011;38263;52.920;6.238;2023-08-31T07:52:59;2.15;;;0.70;;
52322;SDS011;38263;52.920;6.238;2023-08-31T07:55:25;1.25;;;0.90;;
52322;SDS011;38263;52.920;6.238;2023-08-31T07:57:51;3.17;;;0.80;;
52322;SDS011;38263;52.920;6.238;2023-08-31T08:00:17;3.65;;;1.10;;
52322;SDS011;38263;52.920;6.238;2023-08-31T08:02:47;3.58;;;1.23;;
52322;SDS011;38263;52.920;6.238;2023-08-31T08:05:12;5.13;;;1.10;;
52322;SDS011;38263;52.920;6.238;2023-08-31T08:07:38;4.22;;;1.20;;
52322;SDS011;38263;52.920;6.238;2023-08-31T08:10:07;2.65;;;0.82;;
52322;SDS011;38263;52.920;6.238;2023-08-31T08:12:36;6.57;;;1.23;;
52322;SDS011;38263;52.920;6.238;2023-08-31T08:15:03;1.15;;;0.65;;
52322;SDS011;38263;52.920;6.238;2023-08-31T08:17:29;3.17;;;0.85;;
52322;SDS011;38263;52.920;6.238;2023-08-31T08:19:55;4.40;;;0.90;;
52322;SDS011;38263;52.920;6.238;2023-08-31T08:22:21;2.03;;;0.90;;
52322;SDS011;38263;52.920;6.238;2023-08-31T08:24:47;2.25;;;0.50;;
52322;SDS011;38263;52.920;6.238;2023-08-31T08:27:13;2.50;;;0.68;;
52322;SDS011;38263;52.920;6.238;2023-08-31T08:29:39;0.68;;;0.38;;
52322;SDS011;38263;52.920;6.238;2023-08-31T08:32:04;2.65;;;0.68;;
52322;SDS011;38263;52.920;6.238;2023-08-31T08:34:31;1.25;;;0.50;;
52322;SDS011;38263;52.920;6.238;2023-08-31T08:36:56;2.35;;;0.52;;
52322;SDS011;38263;52.920;6.238;2023-08-31T08:39:23;1.52;;;0.50;;
52322;SDS011;38263;52.920;6.238;2023-08-31T08:41:49;2.83;;;0.50;;
52322;SDS011;38263;52.920;6.238;2023-08-31T08:44:15;2.35;;;0.57;;
52322;SDS011;38263;52.920;6.238;2023-08-31T08:46:43;3.38;;;1.30;;
52322;SDS011;38263;52.920;6.238;2023-08-31T08:49:09;3.15;;;1.38;;
52322;SDS011;38263;52.920;6.238;2023-08-31T08:51:35;5.03;;;2.65;;
52322;SDS011;38263;52.920;6.238;2023-08-31T08:54:01;7.50;;;5.15;;
52322;SDS011;38263;52.920;6.238;2023-08-31T09:00:15;3.28;;;1.05;;
52322;SDS011;38263;52.920;6.238;2023-08-31T09:02:41;3.10;;;0.73;;
52322;SDS011;38263;52.920;6.238;2023-08-31T09:05:07;2.67;;;0.82;;
52322;SDS011;38263;52.920;6.238;2023-08-31T09:07:36;1.85;;;0.63;;
52322;SDS011;38263;52.920;6.238;2023-08-31T09:10:02;2.20;;;1.77;;
52322;SDS011;38263;52.920;6.238;2023-08-31T09:12:29;2.85;;;0.60;;
52322;SDS011;38263;52.920;6.238;2023-08-31T09:17:25;1.92;;;0.45;;
52322;SDS011;38263;52.920;6.238;2023-08-31T09:20:00;2.13;;;0.57;;
52322;SDS011;38263;52.920;6.238;2023-08-31T09:22:28;0.68;;;0.40;;
52322;SDS011;38263;52.920;6.238;2023-08-31T09:24:54;2.33;;;0.75;;
52322;SDS011;38263;52.920;6.238;2023-08-31T09:27:20;2.80;;;0.90;;
52322;SDS011;38263;52.920;6.238;2023-08-31T09:29:48;1.98;;;0.50;;
52322;SDS011;38263;52.920;6.238;2023-08-31T09:32:17;1.38;;;0.47;;
52322;SDS011;38263;52.920;6.238;2023-08-31T09:34:43;2.83;;;0.60;;
52322;SDS011;38263;52.920;6.238;2023-08-31T09:37:09;3.50;;;0.45;;
52322;SDS011;38263;52.920;6.238;2023-08-31T09:39:36;2.47;;;0.70;;
52322;SDS011;38263;52.920;6.238;2023-08-31T09:42:02;4.05;;;0.70;;
52322;SDS011;38263;52.920;6.238;2023-08-31T09:44:29;4.45;;;0.70;;
52322;SDS011;38263;52.920;6.238;2023-08-31T09:46:55;2.83;;;0.45;;
52322;SDS011;38263;52.920;6.238;2023-08-31T09:49:21;1.58;;;0.40;;
52322;SDS011;38263;52.920;6.238;2023-08-31T09:51:48;1.60;;;0.50;;
52322;SDS011;38263;52.920;6.238;2023-08-31T09:54:21;2.53;;;0.60;;
52322;SDS011;38263;52.920;6.238;2023-08-31T09:56:47;2.55;;;0.55;;
52322;SDS011;38263;52.920;6.238;2023-08-31T09:59:15;2.60;;;0.70;;
52322;SDS011;38263;52.920;6.238;2023-08-31T10:01:41;2.35;;;0.50;;
52322;SDS011;38263;52.920;6.238;2023-08-31T10:04:09;1.83;;;0.40;;
52322;SDS011;38263;52.920;6.238;2023-08-31T10:06:36;4.47;;;0.65;;
52322;SDS011;38263;52.920;6.238;2023-08-31T10:09:05;3.92;;;0.60;;
52322;SDS011;38263;52.920;6.238;2023-08-31T10:11:31;0.85;;;0.35;;
52322;SDS011;38263;52.920;6.238;2023-08-31T10:13:58;1.60;;;0.40;;
52322;SDS011;38263;52.920;6.238;2023-08-31T10:16:26;4.72;;;0.70;;
52322;SDS011;38263;52.920;6.238;2023-08-31T10:18:52;2.72;;;0.30;;
52322;SDS011;38263;52.920;6.238;2023-08-31T10:21:19;2.00;;;0.40;;
52322;SDS011;38263;52.920;6.238;2023-08-31T10:23:46;1.70;;;0.30;;
52322;SDS011;38263;52.920;6.238;2023-08-31T10:26:14;2.13;;;0.80;;
52322;SDS011;38263;52.920;6.238;2023-08-31T10:28:51;1.08;;;0.40;;
52322;SDS011;38263;52.920;6.238;2023-08-31T10:31:18;2.03;;;0.60;;
52322;SDS011;38263;52.920;6.238;2023-08-31T10:33:55;2.13;;;0.40;;
52322;SDS011;38263;52.920;6.238;2023-08-31T10:36:22;2.40;;;0.50;;
52322;SDS011;38263;52.920;6.238;2023-08-31T10:41:41;1.90;;;0.60;;
52322;SDS011;38263;52.920;6.238;2023-08-31T10:44:23;2.85;;;0.60;;
52322;SDS011;38263;52.920;6.238;2023-08-31T10:46:50;4.97;;;0.52;;
52322;SDS011;38263;52.920;6.238;2023-08-31T10:49:17;1.98;;;0.50;;
52322;SDS011;38263;52.920;6.238;2023-08-31T10:51:45;2.88;;;0.73;;
52322;SDS011;38263;52.920;6.238;2023-08-31T10:59:44;3.95;;;0.70;;
52322;SDS011;38263;52.920;6.238;2023-08-31T11:07:36;6.82;;;0.70;;
52322;SDS011;38263;52.920;6.238;2023-08-31T11:12:45;3.97;;;0.52;;
52322;SDS011;38263;52.920;6.238;2023-08-31T11:15:16;2.53;;;0.68;;
52322;SDS011;38263;52.920;6.238;2023-08-31T11:17:43;2.70;;;0.65;;
52322;SDS011;38263;52.920;6.238;2023-08-31T11:20:13;3.22;;;0.50;;
52322;SDS011;38263;52.920;6.238;2023-08-31T11:22:44;4.18;;;0.68;;
52322;SDS011;38263;52.920;6.238;2023-08-31T11:25:12;3.47;;;0.50;;
52322;SDS011;38263;52.920;6.238;2023-08-31T11:27:38;3.50;;;0.65;;
52322;SDS011;38263;52.920;6.238;2023-08-31T11:30:11;1.80;;;0.45;;
52322;SDS011;38263;52.920;6.238;2023-08-31T11:32:44;2.08;;;0.50;;
52322;SDS011;38263;52.920;6.238;2023-08-31T11:35:11;5.22;;;1.02;;
52322;SDS011;38263;52.920;6.238;2023-08-31T11:37:37;2.45;;;0.55;;
52322;SDS011;38263;52.920;6.238;2023-08-31T11:40:02;2.10;;;0.63;;
52322;SDS011;38263;52.920;6.238;2023-08-31T11:42:30;3.40;;;0.60;;
52322;SDS011;38263;52.920;6.238;2023-08-31T11:44:56;4.93;;;1.05;;
52322;SDS011;38263;52.920;6.238;2023-08-31T11:47:22;3.30;;;0.50;;
52322;SDS011;38263;52.920;6.238;2023-08-31T11:49:49;3.53;;;0.55;;
52322;SDS011;38263;52.920;6.238;2023-08-31T11:52:15;2.15;;;0.50;;
52322;SDS011;38263;52.920;6.238;2023-08-31T11:54:42;3.65;;;0.55;;
52322;SDS011;38263;52.920;6.238;2023-08-31T11:57:08;4.65;;;0.60;;
52322;SDS011;38263;52.920;6.238;2023-08-31T11:59:35;2.53;;;0.63;;
52322;SDS011;38263;52.920;6.238;2023-08-31T12:02:04;3.28;;;0.70;;
52322;SDS011;38263;52.920;6.238;2023-08-31T12:04:32;3.17;;;0.80;;
52322;SDS011;38263;52.920;6.238;2023-08-31T12:07:02;3.13;;;0.50;;
52322;SDS011;38263;52.920;6.238;2023-08-31T12:09:29;2.00;;;0.43;;
52322;SDS011;38263;52.920;6.238;2023-08-31T12:11:55;4.10;;;0.90;;
52322;SDS011;38263;52.920;6.238;2023-08-31T12:14:22;4.50;;;0.77;;
52322;SDS011;38263;52.920;6.238;2023-08-31T12:16:49;3.20;;;0.60;;
52322;SDS011;38263;52.920;6.238;2023-08-31T12:19:15;1.70;;;0.65;;
52322;SDS011;38263;52.920;6.238;2023-08-31T12:21:42;3.05;;;0.65;;
52322;SDS011;38263;52.920;6.238;2023-08-31T12:24:09;2.00;;;0.50;;
52322;SDS011;38263;52.920;6.238;2023-08-31T12:26:35;3.85;;;0.60;;
52322;SDS011;38263;52.920;6.238;2023-08-31T12:29:01;2.85;;;0.70;;
52322;SDS011;38263;52.920;6.238;2023-08-31T12:31:29;3.88;;;0.82;;
52322;SDS011;38263;52.920;6.238;2023-08-31T12:33:56;5.93;;;1.00;;
52322;SDS011;38263;52.920;6.238;2023-08-31T12:36:22;3.28;;;0.75;;
52322;SDS011;38263;52.920;6.238;2023-08-31T12:38:47;5.38;;;0.90;;
52322;SDS011;38263;52.920;6.238;2023-08-31T12:41:13;2.83;;;0.75;;
52322;SDS011;38263;52.920;6.238;2023-08-31T12:43:39;4.75;;;0.88;;
52322;SDS011;38263;52.920;6.238;2023-08-31T12:46:05;3.33;;;0.43;;
52322;SDS011;38263;52.920;6.238;2023-08-31T12:48:32;3.00;;;0.80;;
52322;SDS011;38263;52.920;6.238;2023-08-31T12:50:58;3.38;;;0.77;;
52322;SDS011;38263;52.920;6.238;2023-08-31T12:53:24;4.05;;;0.95;;
52322;SDS011;38263;52.920;6.238;2023-08-31T12:55:50;7.68;;;0.75;;
52322;SDS011;38263;52.920;6.238;2023-08-31T12:58:16;5.28;;;0.80;;
52322;SDS011;38263;52.920;6.238;2023-08-31T13:00:42;6.30;;;0.88;;
52322;SDS011;38263;52.920;6.238;2023-08-31T13:03:08;2.38;;;0.57;;
52322;SDS011;38263;52.920;6.238;2023-08-31T13:05:34;4.90;;;0.80;;
52322;SDS011;38263;52.920;6.238;2023-08-31T13:08:00;8.95;;;1.23;;
52322;SDS011;38263;52.920;6.238;2023-08-31T13:10:26;5.65;;;0.65;;
52322;SDS011;38263;52.920;6.238;2023-08-31T13:12:52;2.88;;;0.63;;
52322;SDS011;38263;52.920;6.238;2023-08-31T13:15:19;3.13;;;0.57;;
52322;SDS011;38263;52.920;6.238;2023-08-31T13:17:45;2.65;;;0.40;;
52322;SDS011;38263;52.920;6.238;2023-08-31T13:20:11;2.33;;;0.60;;
52322;SDS011;38263;52.920;6.238;2023-08-31T13:22:37;6.25;;;0.88;;
52322;SDS011;38263;52.920;6.238;2023-08-31T13:25:04;3.38;;;0.50;;
52322;SDS011;38263;52.920;6.238;2023-08-31T13:27:30;5.78;;;0.80;;
52322;SDS011;38263;52.920;6.238;2023-08-31T13:29:58;4.50;;;0.65;;
52322;SDS011;38263;52.920;6.238;2023-08-31T13:32:24;5.35;;;1.13;;
52322;SDS011;38263;52.920;6.238;2023-08-31T13:34:50;4.18;;;0.60;;
52322;SDS011;38263;52.920;6.238;2023-08-31T13:37:18;2.60;;;0.60;;
52322;SDS011;38263;52.920;6.238;2023-08-31T13:39:44;4.38;;;0.68;;
52322;SDS011;38263;52.920;6.238;2023-08-31T13:42:10;3.28;;;0.77;;
52322;SDS011;38263;52.920;6.238;2023-08-31T13:44:36;1.77;;;0.40;;
52322;SDS011;38263;52.920;6.238;2023-08-31T13:47:01;3.85;;;0.45;;
52322;SDS011;38263;52.920;6.238;2023-08-31T13:49:28;1.15;;;0.50;;
52322;SDS011;38263;52.920;6.238;2023-08-31T13:51:55;3.47;;;0.93;;
52322;SDS011;38263;52.920;6.238;2023-08-31T13:54:21;2.80;;;0.82;;
52322;SDS011;38263;52.920;6.238;2023-08-31T13:56:47;5.22;;;0.80;;
52322;SDS011;38263;52.920;6.238;2023-08-31T13:59:15;3.75;;;0.80;;
52322;SDS011;38263;52.920;6.238;2023-08-31T14:01:40;5.10;;;1.00;;
52322;SDS011;38263;52.920;6.238;2023-08-31T14:04:06;4.53;;;0.90;;
52322;SDS011;38263;52.920;6.238;2023-08-31T14:06:32;4.40;;;0.80;;
52322;SDS011;38263;52.920;6.238;2023-08-31T14:08:57;5.78;;;1.20;;
52322;SDS011;38263;52.920;6.238;2023-08-31T14:11:23;2.67;;;0.50;;
52322;SDS011;38263;52.920;6.238;2023-08-31T14:13:48;5.32;;;0.82;;
52322;SDS011;38263;52.920;6.238;2023-08-31T14:16:14;5.10;;;1.25;;
52322;SDS011;38263;52.920;6.238;2023-08-31T14:18:39;3.97;;;1.00;;
52322;SDS011;38263;52.920;6.238;2023-08-31T14:21:05;4.85;;;0.80;;
52322;SDS011;38263;52.920;6.238;2023-08-31T14:23:31;4.80;;;0.80;;
52322;SDS011;38263;52.920;6.238;2023-08-31T14:26:01;5.95;;;0.70;;
52322;SDS011;38263;52.920;6.238;2023-08-31T14:28:28;4.07;;;1.00;;
52322;SDS011;38263;52.920;6.238;2023-08-31T14:30:53;4.68;;;0.93;;
52322;SDS011;38263;52.920;6.238;2023-08-31T14:33:19;7.18;;;0.85;;
52322;SDS011;38263;52.920;6.238;2023-08-31T14:35:44;3.85;;;0.80;;
52322;SDS011;38263;52.920;6.238;2023-08-31T14:38:10;5.88;;;0.60;;
52322;SDS011;38263;52.920;6.238;2023-08-31T14:40:40;4.72;;;0.60;;
52322;SDS011;38263;52.920;6.238;2023-08-31T14:43:07;6.18;;;1.13;;
52322;SDS011;38263;52.920;6.238;2023-08-31T14:45:32;4.50;;;1.05;;
52322;SDS011;38263;52.920;6.238;2023-08-31T14:47:58;3.97;;;0.60;;
52322;SDS011;38263;52.920;6.238;2023-08-31T14:50:24;5.03;;;0.68;;
52322;SDS011;38263;52.920;6.238;2023-08-31T14:52:49;4.82;;;0.70;;
52322;SDS011;38263;52.920;6.238;2023-08-31T14:55:15;4.60;;;0.75;;
52322;SDS011;38263;52.920;6.238;2023-08-31T14:57:40;3.17;;;0.70;;
52322;SDS011;38263;52.920;6.238;2023-08-31T15:00:07;3.53;;;0.60;;
52322;SDS011;38263;52.920;6.238;2023-08-31T15:02:34;3.83;;;0.77;;
52322;SDS011;38263;52.920;6.238;2023-08-31T15:05:00;5.03;;;0.95;;
52322;SDS011;38263;52.920;6.238;2023-08-31T15:07:26;5.43;;;1.13;;
52322;SDS011;38263;52.920;6.238;2023-08-31T15:09:52;4.53;;;0.52;;
52322;SDS011;38263;52.920;6.238;2023-08-31T15:12:17;2.67;;;0.90;;